Time;durP1;ratioP1;P1;durP2;ratioP2;P2;SDS_P1;SDS_P2;PMS_P1;PMS_P2;Temp;Humidity;BMP_temperature;BMP_pressure;BME280_temperature;BME280_humidity;BME280_pressure;Samples;Min_cycle;Max_cycle;Signal;HPM_P1;HPM_P2
2020/12/25 00:02:11;;;;;;;0.50;0.50;;;22.50;40.60;;;;;;5089931;28;20123;-63
2020/12/25 00:04:38;;;;;;;0.60;0.60;;;22.50;40.70;;;;;;5089808;28;20130;-64
2020/12/25 00:07:05;;;;;;;0.40;0.40;;;22.50;41.20;;;;;;5090256;28;20131;-64
2020/12/25 00:09:31;;;;;;;1.67;0.65;;;22.50;40.70;;;;;;5090355;28;20385;-64
2020/12/25 00:11:58;;;;;;;0.85;0.50;;;22.50;40.70;;;;;;5089444;28;20048;-64
2020/12/25 00:14:25;;;;;;;0.63;0.63;;;22.50;40.70;;;;;;5088867;28;20044;-64
2020/12/25 00:16:51;;;;;;;0.65;0.47;;;22.40;40.60;;;;;;5089287;28;20044;-64
2020/12/25 00:19:18;;;;;;;0.63;0.63;;;22.40;40.70;;;;;;5089637;28;20570;-64
2020/12/25 00:21:45;;;;;;;0.45;0.45;;;22.40;40.70;;;;;;5089569;28;20050;-64
2020/12/25 00:24:12;;;;;;;0.90;0.40;;;22.50;40.70;;;;;;5089523;28;20123;-64
2020/12/25 00:26:38;;;;;;;0.45;0.45;;;22.40;40.70;;;;;;5090033;28;20070;-64
2020/12/25 00:29:05;;;;;;;0.40;0.40;;;22.40;40.70;;;;;;5089322;28;20046;-64
2020/12/25 00:31:34;;;;;;;0.50;0.50;;;22.40;40.70;;;;;;5088179;28;20131;-64
2020/12/25 00:34:04;;;;;;;0.40;0.40;;;22.40;40.70;;;;;;5089941;28;20397;-65
2020/12/25 00:36:33;;;;;;;0.60;0.60;;;22.40;40.70;;;;;;5089324;28;20139;-64
2020/12/25 00:39:03;;;;;;;0.40;0.40;;;22.40;40.70;;;;;;5089563;28;20186;-63
2020/12/25 00:41:30;;;;;;;0.28;0.28;;;22.40;40.70;;;;;;5088958;28;20491;-64
2020/12/25 00:43:56;;;;;;;0.38;0.38;;;22.40;40.70;;;;;;5089377;28;20055;-64
2020/12/25 00:46:23;;;;;;;0.73;0.50;;;22.40;40.80;;;;;;5089127;28;20508;-64
2020/12/25 00:48:50;;;;;;;0.40;0.40;;;22.40;40.70;;;;;;5089117;28;20094;-64
2020/12/25 00:51:21;;;;;;;0.55;0.55;;;22.40;40.70;;;;;;5087921;28;20086;-64
2020/12/25 00:53:48;;;;;;;0.43;0.43;;;22.40;40.70;;;;;;5088588;28;20058;-63
2020/12/25 00:56:16;;;;;;;0.32;0.32;;;22.40;40.70;;;;;;5088285;28;20612;-64
2020/12/25 00:58:44;;;;;;;0.50;0.50;;;22.40;40.60;;;;;;5088694;28;20052;-63
2020/12/25 01:01:12;;;;;;;0.75;0.50;;;22.40;40.60;;;;;;5088740;28;20335;-64
2020/12/25 01:03:44;;;;;;;0.50;0.50;;;22.40;40.60;;;;;;5089301;28;20048;-64
2020/12/25 01:06:16;;;;;;;0.35;0.35;;;22.40;40.60;;;;;;5088165;28;20135;-64
2020/12/25 01:08:44;;;;;;;0.40;0.40;;;22.40;40.60;;;;;;5088702;28;20163;-64
2020/12/25 01:11:12;;;;;;;0.68;0.68;;;22.40;40.70;;;;;;5088373;28;20063;-64
2020/12/25 01:13:40;;;;;;;0.50;0.50;;;22.40;40.60;;;;;;5088514;28;20093;-64
2020/12/25 01:16:09;;;;;;;0.88;0.63;;;22.40;40.70;;;;;;5087915;28;20066;-64
2020/12/25 01:18:36;;;;;;;0.73;0.45;;;22.40;40.70;;;;;;5088371;28;20227;-64
2020/12/25 01:21:04;;;;;;;0.50;0.50;;;22.40;40.70;;;;;;5088467;28;20118;-64
2020/12/25 01:23:30;;;;;;;0.63;0.63;;;22.40;40.70;;;;;;5088525;28;20055;-63
2020/12/25 01:25:57;;;;;;;0.50;0.50;;;22.40;40.70;;;;;;5088600;28;20044;-64
2020/12/25 01:28:23;;;;;;;0.43;0.43;;;22.40;40.70;;;;;;5088154;28;20115;-64
2020/12/25 01:30:50;;;;;;;0.55;0.55;;;22.40;40.70;;;;;;5088074;28;20079;-64
2020/12/25 01:33:17;;;;;;;0.30;0.30;;;22.40;40.70;;;;;;5088069;28;20508;-64
2020/12/25 01:35:43;;;;;;;0.88;0.68;;;22.30;40.70;;;;;;5088059;28;20040;-64
2020/12/25 01:38:10;;;;;;;0.60;0.60;;;22.40;40.70;;;;;;5086946;28;20320;-64
2020/12/25 01:40:36;;;;;;;0.93;0.60;;;22.40;40.70;;;;;;5087077;28;20130;-64
2020/12/25 01:43:03;;;;;;;0.60;0.60;;;22.40;40.70;;;;;;5088150;28;20131;-64
2020/12/25 01:45:30;;;;;;;0.47;0.43;;;22.40;40.70;;;;;;5088388;28;20068;-63
2020/12/25 01:47:58;;;;;;;0.30;0.30;;;22.30;40.70;;;;;;5088244;28;20467;-64
2020/12/25 01:50:27;;;;;;;0.60;0.60;;;22.30;40.70;;;;;;5088393;28;20078;-64
2020/12/25 01:52:56;;;;;;;0.63;0.63;;;22.40;40.70;;;;;;5087404;28;20513;-64
2020/12/25 01:55:27;;;;;;;0.70;0.70;;;22.40;40.70;;;;;;5088342;28;20093;-63
2020/12/25 01:57:58;;;;;;;0.47;0.47;;;22.40;40.70;;;;;;5087835;28;20135;-64
2020/12/25 02:00:25;;;;;;;0.63;0.63;;;22.40;41.20;;;;;;5087141;28;20079;-64
2020/12/25 02:02:52;;;;;;;0.60;0.60;;;22.40;40.60;;;;;;5086496;28;20533;-63
2020/12/25 02:05:20;;;;;;;0.32;0.32;;;22.40;40.60;;;;;;5087072;28;20056;-64
2020/12/25 02:07:47;;;;;;;0.40;0.40;;;22.40;40.60;;;;;;5087126;28;20239;-63
2020/12/25 02:10:14;;;;;;;0.60;0.60;;;22.40;40.60;;;;;;5087003;28;20066;-64
2020/12/25 02:12:41;;;;;;;0.45;0.45;;;22.40;40.60;;;;;;5086988;28;20082;-64
2020/12/25 02:15:09;;;;;;;0.80;0.40;;;22.40;40.60;;;;;;5087840;28;20531;-64
2020/12/25 02:17:43;;;;;;;0.50;0.45;;;22.40;41.20;;;;;;5087362;28;20083;-64
2020/12/25 02:20:11;;;;;;;0.50;0.50;;;22.40;40.70;;;;;;5085457;28;20126;-64
2020/12/25 02:22:37;;;;;;;0.80;0.70;;;22.40;40.70;;;;;;5087062;28;20070;-64
2020/12/25 02:25:05;;;;;;;0.50;0.50;;;22.40;40.70;;;;;;5085273;28;20127;-63
2020/12/25 02:27:32;;;;;;;0.68;0.68;;;22.30;40.60;;;;;;5087145;28;20475;-64
2020/12/25 02:29:59;;;;;;;0.40;0.40;;;22.30;40.60;;;;;;5087332;28;20075;-64
2020/12/25 02:32:25;;;;;;;0.95;0.32;;;22.30;40.60;;;;;;5087255;28;20272;-64
2020/12/25 02:35:10;;;;;;;1.13;0.65;;;22.30;40.60;;;;;;5086952;28;20063;-64
2020/12/25 02:37:36;;;;;;;0.45;0.45;;;22.30;40.60;;;;;;5085811;28;20365;-64
2020/12/25 02:40:03;;;;;;;0.40;0.40;;;22.30;40.60;;;;;;5085206;28;20131;-64
2020/12/25 02:42:30;;;;;;;0.28;0.28;;;22.30;40.70;;;;;;5087429;28;20044;-66
2020/12/25 02:44:57;;;;;;;0.50;0.50;;;22.30;40.60;;;;;;5087192;28;20098;-64
2020/12/25 02:47:23;;;;;;;0.43;0.40;;;22.30;40.70;;;;;;5086521;28;20123;-63
2020/12/25 02:49:56;;;;;;;0.20;0.20;;;22.30;40.70;;;;;;5087093;28;20512;-64
2020/12/25 02:52:23;;;;;;;0.47;0.30;;;22.30;40.70;;;;;;5087273;28;20083;-64
2020/12/25 02:54:50;;;;;;;0.50;0.50;;;22.30;40.70;;;;;;5086023;28;20112;-64
2020/12/25 02:57:16;;;;;;;0.50;0.50;;;22.30;40.60;;;;;;5087224;28;20135;-64
2020/12/25 02:59:43;;;;;;;0.40;0.40;;;22.30;40.60;;;;;;5087067;28;20514;-64
2020/12/25 03:02:11;;;;;;;0.40;0.40;;;22.30;40.60;;;;;;5085813;28;20055;-64
2020/12/25 03:04:38;;;;;;;1.55;0.50;;;22.30;40.60;;;;;;5087367;28;20102;-64
2020/12/25 03:07:04;;;;;;;0.50;0.50;;;22.30;40.60;;;;;;5086810;28;20643;-64
2020/12/25 03:09:31;;;;;;;0.30;0.30;;;22.30;40.60;;;;;;5087198;28;20508;-63
2020/12/25 03:11:58;;;;;;;0.50;0.45;;;22.40;40.60;;;;;;5086512;28;20048;-64
2020/12/25 03:14:24;;;;;;;0.70;0.50;;;22.30;40.60;;;;;;5087328;28;20116;-64
2020/12/25 03:16:51;;;;;;;0.30;0.30;;;22.30;40.60;;;;;;5086923;28;20087;-64
2020/12/25 03:19:18;;;;;;;0.77;0.60;;;22.30;40.60;;;;;;5086286;28;20044;-64
2020/12/25 03:21:44;;;;;;;0.30;0.30;;;22.30;40.60;;;;;;5086504;28;20040;-64
2020/12/25 03:24:11;;;;;;;0.30;0.30;;;22.30;40.60;;;;;;5089393;28;20513;-64
2020/12/25 03:26:38;;;;;;;0.47;0.47;;;22.30;40.60;;;;;;5091153;28;20047;-64
2020/12/25 03:29:04;;;;;;;0.88;0.40;;;22.30;40.60;;;;;;5090226;28;20095;-64
2020/12/25 03:31:31;;;;;;;0.30;0.30;;;22.30;40.60;;;;;;5090836;28;20124;-64
2020/12/25 03:33:57;;;;;;;1.65;0.60;;;22.30;40.70;;;;;;5088820;28;20048;-63
2020/12/25 03:36:24;;;;;;;0.50;0.40;;;22.30;40.70;;;;;;5090694;28;20134;-66
2020/12/25 03:38:51;;;;;;;0.68;0.50;;;22.30;40.70;;;;;;5090072;28;20048;-64
2020/12/25 03:41:17;;;;;;;0.73;0.32;;;22.30;40.70;;;;;;5090541;28;20076;-64
2020/12/25 03:43:44;;;;;;;0.60;0.40;;;22.30;40.70;;;;;;5089882;28;20271;-64
2020/12/25 03:46:11;;;;;;;0.40;0.40;;;22.30;40.70;;;;;;5089218;28;20143;-63
2020/12/25 03:48:37;;;;;;;0.40;0.40;;;22.30;40.70;;;;;;5089957;28;20083;-64
2020/12/25 03:51:04;;;;;;;0.47;0.47;;;22.30;40.70;;;;;;5089575;28;20416;-64
2020/12/25 03:53:31;;;;;;;0.40;0.40;;;22.30;40.70;;;;;;5090385;28;20098;-64
2020/12/25 03:55:57;;;;;;;0.50;0.50;;;22.30;40.70;;;;;;5090667;28;20051;-64
2020/12/25 03:58:24;;;;;;;0.47;0.47;;;22.30;40.70;;;;;;5089786;28;20136;-64
2020/12/25 04:00:51;;;;;;;0.43;0.40;;;22.30;40.70;;;;;;5089890;28;20040;-63
2020/12/25 04:03:17;;;;;;;0.40;0.40;;;22.30;40.70;;;;;;5089925;28;20143;-64
2020/12/25 04:05:44;;;;;;;0.40;0.40;;;22.30;40.70;;;;;;5088647;28;20040;-64
2020/12/25 04:08:10;;;;;;;0.45;0.45;;;22.30;40.60;;;;;;5090534;28;20386;-64
2020/12/25 04:10:37;;;;;;;0.60;0.57;;;22.30;40.60;;;;;;5089090;28;20497;-64
2020/12/25 04:13:05;;;;;;;0.38;0.38;;;22.30;40.60;;;;;;5089852;28;20482;-66
2020/12/25 04:15:32;;;;;;;0.38;0.38;;;22.30;40.60;;;;;;5089808;28;20072;-64
2020/12/25 04:17:58;;;;;;;0.20;0.20;;;22.30;40.60;;;;;;5089562;28;20071;-64
2020/12/25 04:20:25;;;;;;;0.28;0.28;;;22.30;40.60;;;;;;5088734;28;20105;-63
2020/12/25 04:22:51;;;;;;;0.38;0.38;;;22.30;40.70;;;;;;5089860;28;20044;-64
2020/12/25 04:25:18;;;;;;;0.47;0.40;;;22.30;40.60;;;;;;5089109;28;20082;-64
2020/12/25 04:27:45;;;;;;;1.75;0.40;;;22.30;40.60;;;;;;5090777;28;20079;-64
2020/12/25 04:30:11;;;;;;;0.25;0.25;;;22.30;40.70;;;;;;5089232;28;20458;-64
2020/12/25 04:32:38;;;;;;;0.70;0.60;;;22.20;40.60;;;;;;5090106;28;20615;-64
2020/12/25 04:35:05;;;;;;;0.40;0.20;;;22.30;40.70;;;;;;5088273;28;20044;-64
2020/12/25 04:37:32;;;;;;;1.77;0.40;;;22.20;40.60;;;;;;5089659;28;20098;-64
2020/12/25 04:39:59;;;;;;;0.25;0.25;;;22.20;40.70;;;;;;5087847;28;20072;-64
2020/12/25 04:42:27;;;;;;;0.80;0.50;;;22.20;40.70;;;;;;5088752;28;20160;-64
2020/12/25 04:44:54;;;;;;;0.22;0.22;;;22.20;40.70;;;;;;5088420;28;20076;-63
2020/12/25 04:47:21;;;;;;;0.68;0.30;;;22.20;40.70;;;;;;5088759;28;20048;-64
2020/12/25 04:49:48;;;;;;;0.40;0.32;;;22.20;40.70;;;;;;5088601;28;20109;-64
2020/12/25 04:52:15;;;;;;;0.40;0.40;;;22.20;40.70;;;;;;5088295;28;20134;-63
2020/12/25 04:54:41;;;;;;;0.45;0.28;;;22.20;40.70;;;;;;5089009;28;20127;-64
2020/12/25 04:57:08;;;;;;;0.82;0.40;;;22.20;40.70;;;;;;5089702;28;20058;-63
2020/12/25 04:59:35;;;;;;;0.60;0.30;;;22.20;40.70;;;;;;5089063;28;20433;-64
2020/12/25 05:02:04;;;;;;;0.63;0.43;;;22.20;40.70;;;;;;5089002;28;20432;-64
2020/12/25 05:04:31;;;;;;;0.52;0.22;;;22.20;40.70;;;;;;5088129;28;20159;-64
2020/12/25 05:07:01;;;;;;;0.63;0.30;;;22.20;40.60;;;;;;5088435;28;20044;-66
2020/12/25 05:09:29;;;;;;;0.38;0.38;;;22.20;40.70;;;;;;5088911;28;20448;-64
2020/12/25 05:11:57;;;;;;;0.30;0.30;;;22.20;40.60;;;;;;5088547;28;20060;-63
2020/12/25 05:14:29;;;;;;;0.95;0.30;;;22.20;40.60;;;;;;5088803;28;20466;-63
2020/12/25 05:16:57;;;;;;;0.73;0.20;;;22.20;40.60;;;;;;5088831;28;20056;-64
2020/12/25 05:19:30;;;;;;;0.52;0.50;;;22.30;40.60;;;;;;5088281;28;20105;-64
2020/12/25 05:22:00;;;;;;;0.20;0.20;;;22.20;40.60;;;;;;5087396;28;20134;-64
2020/12/25 05:24:35;;;;;;;0.22;0.22;;;22.20;40.60;;;;;;5088707;28;20398;-64
2020/12/25 05:27:09;;;;;;;0.38;0.38;;;22.20;40.60;;;;;;5088631;28;20566;-63
2020/12/25 05:29:38;;;;;;;0.63;0.20;;;22.20;40.60;;;;;;5088192;28;20222;-64
2020/12/25 05:32:06;;;;;;;0.20;0.20;;;22.20;40.60;;;;;;5087573;28;20100;-64
2020/12/25 05:34:35;;;;;;;0.40;0.30;;;22.20;40.60;;;;;;5087815;28;20489;-64
2020/12/25 05:37:06;;;;;;;0.20;0.20;;;22.20;40.60;;;;;;5088575;28;20485;-64
2020/12/25 05:39:38;;;;;;;0.30;0.30;;;22.20;40.70;;;;;;5087126;28;20079;-63
2020/12/25 05:42:07;;;;;;;0.35;0.30;;;22.20;40.60;;;;;;5088341;28;20109;-64
2020/12/25 05:44:48;;;;;;;0.20;0.20;;;22.20;40.70;;;;;;5086887;28;20052;-63
2020/12/25 05:47:18;;;;;;;0.30;0.25;;;22.20;40.70;;;;;;5086352;28;20728;-64
2020/12/25 05:49:45;;;;;;;0.30;0.30;;;22.20;40.70;;;;;;5087834;28;20076;-64
2020/12/25 05:52:15;;;;;;;0.52;0.40;;;22.20;40.70;;;;;;5087893;28;20125;-64
2020/12/25 05:54:44;;;;;;;0.38;0.25;;;22.20;40.70;;;;;;5087993;28;20129;-64
2020/12/25 05:57:14;;;;;;;0.30;0.30;;;22.20;41.30;;;;;;5087891;28;20040;-64
2020/12/25 05:59:46;;;;;;;0.20;0.20;;;22.20;40.80;;;;;;5086968;28;20110;-64
2020/12/25 06:02:16;;;;;;;0.28;0.28;;;22.10;40.70;;;;;;5087686;28;20135;-63
2020/12/25 06:04:42;;;;;;;0.63;0.40;;;22.20;40.70;;;;;;5087684;28;20059;-64
2020/12/25 06:07:30;;;;;;;0.45;0.45;;;22.20;40.70;;;;;;5067269;28;20786;-64
2020/12/25 06:10:00;;;;;;;0.40;0.30;;;22.20;40.70;;;;;;5067067;28;20238;-64
2020/12/25 06:12:41;;;;;;;0.30;0.30;;;22.20;40.60;;;;;;5067818;28;20098;-63
2020/12/25 06:15:11;;;;;;;0.82;0.50;;;22.20;40.60;;;;;;5067831;28;20074;-63
2020/12/25 06:17:55;;;;;;;0.52;0.25;;;22.20;40.50;;;;;;5065896;28;20051;-64
2020/12/25 06:20:25;;;;;;;0.38;0.35;;;22.20;40.50;;;;;;5067689;28;20079;-63
2020/12/25 06:22:52;;;;;;;0.32;0.32;;;22.20;40.40;;;;;;5067612;28;20048;-63
2020/12/25 06:25:21;;;;;;;0.20;0.20;;;22.20;40.30;;;;;;5066959;28;20087;-64
2020/12/25 06:27:57;;;;;;;0.10;0.10;;;22.20;40.30;;;;;;5067917;28;20055;-64
2020/12/25 06:30:26;;;;;;;1.25;0.40;;;22.30;40.30;;;;;;5065004;28;20048;-63
2020/12/25 06:32:57;;;;;;;0.73;0.30;;;22.20;40.10;;;;;;5067620;28;20267;-64
2020/12/25 06:35:28;;;;;;;0.30;0.20;;;22.30;40.10;;;;;;5084012;28;20586;-64
2020/12/25 06:37:56;;;;;;;0.50;0.50;;;22.30;40.00;;;;;;5087603;28;20644;-64
2020/12/25 06:40:24;;;;;;;0.63;0.50;;;22.30;40.00;;;;;;5087383;28;20044;-63
2020/12/25 06:42:54;;;;;;;0.65;0.47;;;22.30;39.90;;;;;;5087630;28;20050;-63
2020/12/25 06:45:27;;;;;;;0.40;0.40;;;22.40;39.90;;;;;;5086874;28;20098;-63
2020/12/25 06:48:14;;;;;;;0.35;0.30;;;22.40;39.80;;;;;;5087137;28;20508;-64
2020/12/25 06:50:49;;;;;;;0.30;0.30;;;22.50;39.80;;;;;;5086462;28;20139;-63
2020/12/25 06:53:40;;;;;;;0.20;0.20;;;22.50;39.70;;;;;;5086403;28;20135;-64
2020/12/25 06:56:25;;;;;;;0.20;0.20;;;22.50;39.60;;;;;;5087139;28;20481;-64
2020/12/25 06:58:54;;;;;;;0.40;0.30;;;22.50;39.50;;;;;;5090951;28;20586;-63
2020/12/25 07:01:42;;;;;;;0.32;0.32;;;22.60;39.50;;;;;;5090729;28;20546;-64
2020/12/25 07:04:24;;;;;;;0.45;0.43;;;22.60;39.40;;;;;;5095952;28;20064;-64
2020/12/25 07:07:06;;;;;;;0.50;0.40;;;22.60;39.40;;;;;;5094826;28;20146;-63
2020/12/25 07:09:47;;;;;;;0.63;0.35;;;22.60;39.30;;;;;;5093606;28;20047;-64
2020/12/25 07:12:19;;;;;;;0.20;0.20;;;22.70;39.30;;;;;;5093297;28;20108;-63
2020/12/25 07:14:46;;;;;;;0.40;0.40;;;22.70;39.20;;;;;;5094504;28;20059;-64
2020/12/25 07:17:13;;;;;;;0.68;0.40;;;22.70;39.20;;;;;;5094334;28;20183;-64
2020/12/25 07:19:40;;;;;;;0.30;0.30;;;22.70;39.10;;;;;;5095354;28;20071;-63
2020/12/25 07:22:07;;;;;;;0.70;0.47;;;22.80;39.00;;;;;;5090444;28;20526;-63
2020/12/25 07:24:39;;;;;;;0.40;0.40;;;22.80;39.00;;;;;;5091249;28;20072;-64
2020/12/25 07:27:07;;;;;;;0.70;0.70;;;22.80;38.90;;;;;;5090252;28;20240;-64
2020/12/25 07:29:36;;;;;;;0.40;0.40;;;22.90;38.90;;;;;;5089808;28;20785;-64
2020/12/25 07:32:03;;;;;;;0.55;0.55;;;22.90;38.90;;;;;;5090602;28;20044;-64
2020/12/25 07:34:32;;;;;;;0.40;0.40;;;22.80;38.80;;;;;;5090956;28;20044;-63
2020/12/25 07:36:59;;;;;;;1.38;0.50;;;22.80;38.80;;;;;;5089878;28;20082;-64
2020/12/25 07:39:27;;;;;;;0.40;0.40;;;22.90;38.80;;;;;;5090364;28;20080;-64
2020/12/25 07:41:55;;;;;;;0.40;0.40;;;22.90;38.80;;;;;;5090528;28;20511;-63
2020/12/25 07:44:23;;;;;;;0.40;0.40;;;22.90;38.70;;;;;;5090300;28;20067;-64
2020/12/25 07:46:50;;;;;;;0.85;0.60;;;22.90;38.60;;;;;;5091029;28;20052;-64
2020/12/25 07:49:19;;;;;;;0.60;0.57;;;22.90;38.60;;;;;;5090360;28;20051;-66
2020/12/25 07:51:49;;;;;;;1.65;0.50;;;23.00;38.60;;;;;;5090267;28;20103;-64
2020/12/25 07:54:16;;;;;;;0.55;0.55;;;23.00;38.50;;;;;;5090522;28;20278;-63
2020/12/25 07:56:44;;;;;;;0.50;0.50;;;23.00;38.50;;;;;;5090149;28;20039;-63
2020/12/25 07:59:10;;;;;;;0.68;0.60;;;23.10;38.50;;;;;;5090486;28;20131;-64
2020/12/25 08:01:38;;;;;;;0.52;0.52;;;23.10;38.50;;;;;;5089606;28;20083;-63
2020/12/25 08:04:05;;;;;;;0.75;0.75;;;23.10;38.40;;;;;;5090580;28;20040;-63
2020/12/25 08:06:34;;;;;;;0.88;0.88;;;23.10;38.40;;;;;;5089601;28;20102;-64
2020/12/25 08:09:10;;;;;;;1.15;0.90;;;23.10;38.30;;;;;;5088069;28;20156;-63
2020/12/25 08:11:41;;;;;;;1.08;0.88;;;23.10;38.30;;;;;;5088496;28;20507;-63
2020/12/25 08:14:14;;;;;;;1.95;1.33;;;23.10;38.30;;;;;;5089845;28;20074;-63
2020/12/25 08:16:43;;;;;;;1.30;1.20;;;23.10;38.30;;;;;;5089653;28;20040;-64
2020/12/25 08:19:10;;;;;;;1.00;0.93;;;23.20;38.20;;;;;;5089932;28;20105;-64
2020/12/25 08:21:39;;;;;;;1.25;1.15;;;23.20;38.20;;;;;;5090026;28;20047;-63
2020/12/25 08:24:07;;;;;;;1.30;1.20;;;23.20;38.10;;;;;;5089714;28;20445;-64
2020/12/25 08:26:39;;;;;;;1.15;1.05;;;23.20;38.00;;;;;;5089445;28;20048;-63
2020/12/25 08:29:06;;;;;;;0.98;0.88;;;23.20;38.00;;;;;;5089706;28;20220;-64
2020/12/25 08:31:38;;;;;;;1.05;1.00;;;23.20;38.00;;;;;;5089128;28;20044;-64
2020/12/25 08:34:06;;;;;;;1.13;1.10;;;23.30;38.00;;;;;;5089740;28;20055;-64
2020/12/25 08:36:33;;;;;;;0.95;0.95;;;23.20;37.90;;;;;;5089391;28;20492;-64
2020/12/25 08:39:07;;;;;;;1.33;1.20;;;23.20;37.90;;;;;;5089157;28;20043;-64
2020/12/25 08:41:34;;;;;;;1.30;1.20;;;23.30;38.00;;;;;;5089482;28;20105;-63
2020/12/25 08:44:12;;;;;;;1.40;1.30;;;23.30;37.90;;;;;;5089018;28;20106;-64
2020/12/25 08:46:39;;;;;;;1.55;1.40;;;23.30;37.80;;;;;;5089162;28;20052;-63
2020/12/25 08:49:07;;;;;;;1.88;1.33;;;23.30;37.80;;;;;;5089130;28;20055;-64
2020/12/25 08:51:37;;;;;;;1.38;1.27;;;23.40;37.90;;;;;;5089425;28;20308;-63
2020/12/25 08:54:05;;;;;;;1.52;1.38;;;23.40;37.80;;;;;;5089128;28;20074;-63
2020/12/25 08:56:35;;;;;;;1.60;1.50;;;23.40;37.80;;;;;;5089285;28;20134;-64
2020/12/25 08:59:07;;;;;;;3.25;1.95;;;23.40;37.70;;;;;;5088945;28;20040;-63
2020/12/25 09:01:38;;;;;;;1.48;1.30;;;23.40;37.70;;;;;;5089244;28;20215;-63
2020/12/25 09:04:12;;;;;;;1.40;1.30;;;23.40;37.60;;;;;;5088956;28;20393;-63
2020/12/25 09:06:38;;;;;;;1.30;1.20;;;23.40;37.60;;;;;;5087611;28;20052;-63
2020/12/25 09:09:25;;;;;;;1.77;1.67;;;23.50;37.60;;;;;;5088773;28;20040;-64
2020/12/25 09:11:52;;;;;;;2.22;1.40;;;23.50;37.50;;;;;;5088891;28;20344;-64
2020/12/25 09:14:18;;;;;;;1.15;1.10;;;23.50;37.50;;;;;;5087109;28;20335;-64
2020/12/25 09:16:45;;;;;;;1.67;1.50;;;23.50;37.50;;;;;;5088525;28;20075;-64
2020/12/25 09:19:11;;;;;;;1.33;1.30;;;23.50;37.40;;;;;;5088089;28;20090;-64
2020/12/25 09:21:38;;;;;;;2.20;1.80;;;23.50;37.30;;;;;;5087488;28;20436;-63
2020/12/25 09:24:05;;;;;;;1.23;1.13;;;23.60;37.40;;;;;;5087670;28;20048;-64
2020/12/25 09:26:31;;;;;;;1.40;1.30;;;23.60;37.40;;;;;;5088415;28;20205;-63
2020/12/25 09:28:58;;;;;;;1.48;1.38;;;23.60;37.20;;;;;;5087989;28;20056;-64
2020/12/25 09:31:24;;;;;;;1.52;1.42;;;23.60;37.20;;;;;;5086881;28;20555;-64
2020/12/25 09:33:51;;;;;;;1.65;1.52;;;23.60;37.10;;;;;;5088298;28;20083;-64
2020/12/25 09:36:18;;;;;;;1.90;1.60;;;23.60;37.10;;;;;;5086837;28;20498;-64
2020/12/25 09:38:44;;;;;;;1.38;1.27;;;23.70;37.10;;;;;;5086295;28;20060;-63
2020/12/25 09:41:13;;;;;;;1.42;1.10;;;23.70;37.10;;;;;;5088399;28;20070;-63
2020/12/25 09:43:41;;;;;;;1.17;1.00;;;23.70;37.00;;;;;;5087929;28;20090;-63
2020/12/25 09:46:08;;;;;;;1.30;1.20;;;23.70;36.90;;;;;;5086973;28;20052;-64
2020/12/25 09:48:35;;;;;;;1.33;1.23;;;23.80;36.90;;;;;;5087827;28;20074;-63
2020/12/25 09:51:02;;;;;;;1.33;1.23;;;23.80;36.80;;;;;;5086556;28;20079;-64
2020/12/25 09:53:29;;;;;;;1.48;1.38;;;23.80;36.80;;;;;;5088097;28;20054;-63
2020/12/25 09:55:55;;;;;;;1.83;1.00;;;23.80;36.70;;;;;;5086532;28;20044;-64
2020/12/25 09:58:22;;;;;;;1.13;1.02;;;23.90;36.80;;;;;;5088432;28;20063;-63
2020/12/25 10:00:49;;;;;;;1.02;0.93;;;23.90;36.70;;;;;;5086594;28;20051;-64
2020/12/25 10:03:15;;;;;;;1.23;1.10;;;23.90;36.70;;;;;;5086736;28;20646;-64
2020/12/25 10:05:42;;;;;;;1.55;1.15;;;23.90;36.70;;;;;;5087649;28;20508;-64
2020/12/25 10:08:08;;;;;;;1.80;1.48;;;23.90;36.60;;;;;;5086942;28;20255;-64
2020/12/25 10:10:35;;;;;;;1.20;1.10;;;23.90;36.60;;;;;;5087522;28;20048;-64
2020/12/25 10:13:05;;;;;;;0.75;0.75;;;23.90;36.60;;;;;;5087916;28;20434;-64
2020/12/25 10:15:31;;;;;;;2.05;1.30;;;23.90;36.60;;;;;;5086539;28;20534;-64
2020/12/25 10:17:58;;;;;;;1.27;1.17;;;23.90;36.60;;;;;;5087875;28;20113;-63
2020/12/25 10:20:24;;;;;;;1.58;1.40;;;23.90;36.60;;;;;;5087636;28;20117;-64
2020/12/25 10:22:51;;;;;;;1.45;1.30;;;23.90;36.60;;;;;;5087792;28;20140;-64
2020/12/25 10:25:18;;;;;;;1.48;1.10;;;23.90;36.70;;;;;;5085894;28;20150;-64
2020/12/25 10:27:45;;;;;;;2.70;1.13;;;23.90;36.60;;;;;;5087523;28;20134;-64
2020/12/25 10:30:11;;;;;;;1.58;1.42;;;23.90;36.60;;;;;;5087167;28;20048;-63
2020/12/25 10:32:39;;;;;;;1.40;0.90;;;23.90;36.60;;;;;;5085733;28;20052;-64
2020/12/25 10:35:07;;;;;;;1.38;1.27;;;23.90;36.60;;;;;;5085438;28;20052;-63
2020/12/25 10:37:37;;;;;;;1.15;1.05;;;23.90;36.60;;;;;;5086865;28;20048;-63
2020/12/25 10:40:15;;;;;;;0.90;0.90;;;23.90;36.60;;;;;;5087710;28;20509;-64
2020/12/25 10:42:41;;;;;;;1.15;1.05;;;23.90;36.50;;;;;;5085919;28;20089;-64
2020/12/25 10:45:08;;;;;;;1.25;1.10;;;23.90;36.50;;;;;;5087330;28;20138;-64
2020/12/25 10:47:34;;;;;;;1.02;0.90;;;24.00;36.50;;;;;;5087478;28;20129;-64
2020/12/25 10:50:02;;;;;;;1.40;1.00;;;24.00;36.40;;;;;;5087241;28;20109;-66
2020/12/25 10:52:29;;;;;;;1.13;0.85;;;24.00;36.40;;;;;;5085746;28;20048;-64
2020/12/25 10:54:56;;;;;;;1.15;1.05;;;24.00;36.30;;;;;;5086983;28;20136;-64
2020/12/25 10:57:22;;;;;;;0.93;0.93;;;24.00;36.30;;;;;;5086996;28;20132;-64
2020/12/25 10:59:52;;;;;;;1.13;1.13;;;24.00;36.30;;;;;;5087459;28;20080;-64
2020/12/25 11:02:18;;;;;;;1.75;1.08;;;24.00;36.30;;;;;;5086876;28;20080;-64
2020/12/25 11:04:45;;;;;;;1.25;1.15;;;24.10;36.30;;;;;;5087265;28;20386;-63
2020/12/25 11:07:12;;;;;;;1.05;0.85;;;24.00;36.30;;;;;;5085570;28;20343;-64
2020/12/25 11:09:39;;;;;;;0.90;0.90;;;24.10;36.30;;;;;;5086881;28;20055;-64
2020/12/25 11:12:06;;;;;;;1.50;1.10;;;24.10;36.30;;;;;;5087096;28;20101;-64
2020/12/25 11:14:34;;;;;;;0.90;0.90;;;24.10;36.30;;;;;;5086622;28;20147;-64
2020/12/25 11:17:00;;;;;;;1.13;1.02;;;24.10;36.30;;;;;;5087532;28;20046;-64
2020/12/25 11:19:27;;;;;;;0.70;0.70;;;24.10;36.30;;;;;;5086875;28;20101;-64
2020/12/25 11:21:54;;;;;;;1.10;0.93;;;24.10;36.40;;;;;;5085638;28;20421;-64
2020/12/25 11:24:20;;;;;;;1.15;1.00;;;24.00;36.30;;;;;;5087203;28;20071;-63
2020/12/25 11:26:47;;;;;;;0.93;0.80;;;24.00;36.30;;;;;;5086726;28;20112;-63
2020/12/25 11:29:13;;;;;;;0.80;0.80;;;24.10;36.40;;;;;;5086959;28;20083;-64
2020/12/25 11:31:40;;;;;;;0.73;0.73;;;24.00;36.30;;;;;;5085119;28;20131;-64
2020/12/25 11:34:07;;;;;;;0.90;0.70;;;24.00;36.30;;;;;;5086838;28;20048;-64
2020/12/25 11:36:35;;;;;;;0.80;0.80;;;24.00;36.20;;;;;;5086477;28;20040;-63
2020/12/25 11:39:04;;;;;;;1.17;1.08;;;24.00;36.20;;;;;;5087028;28;20044;-64
2020/12/25 11:41:31;;;;;;;0.93;0.90;;;24.00;36.20;;;;;;5086442;28;20131;-64
2020/12/25 11:43:58;;;;;;;0.85;0.85;;;24.00;36.20;;;;;;5088135;28;20413;-66
2020/12/25 11:46:24;;;;;;;0.80;0.80;;;24.00;36.20;;;;;;5090103;28;20442;-63
2020/12/25 11:48:52;;;;;;;0.85;0.85;;;24.10;36.20;;;;;;5090618;28;20131;-63
2020/12/25 11:51:24;;;;;;;1.08;0.80;;;24.00;36.20;;;;;;5090083;28;20059;-63
2020/12/25 11:53:52;;;;;;;0.60;0.60;;;24.00;36.10;;;;;;5090006;28;20204;-64
2020/12/25 11:56:20;;;;;;;1.05;0.95;;;24.10;36.20;;;;;;5090267;28;20077;-63
2020/12/25 11:58:47;;;;;;;1.10;1.00;;;24.00;36.10;;;;;;5089851;28;20489;-64
2020/12/25 12:01:15;;;;;;;0.73;0.73;;;24.00;36.10;;;;;;5089781;28;20151;-64
2020/12/25 12:03:42;;;;;;;0.70;0.70;;;24.00;36.10;;;;;;5089827;28;20295;-63
2020/12/25 12:06:09;;;;;;;0.95;0.80;;;24.00;36.10;;;;;;5089800;28;20506;-64
2020/12/25 12:08:37;;;;;;;1.05;1.02;;;24.00;36.10;;;;;;5090455;28;20079;-64
2020/12/25 12:11:04;;;;;;;0.82;0.82;;;24.00;36.10;;;;;;5089305;28;20443;-64
2020/12/25 12:13:33;;;;;;;1.02;0.93;;;24.00;36.10;;;;;;5089415;28;20624;-63
2020/12/25 12:16:00;;;;;;;0.88;0.80;;;24.00;36.10;;;;;;5089798;28;20090;-64
2020/12/25 12:18:27;;;;;;;1.30;1.20;;;23.90;36.10;;;;;;5089926;28;20140;-64
2020/12/25 12:20:53;;;;;;;2.22;1.30;;;23.90;36.10;;;;;;5089835;28;20554;-63
2020/12/25 12:23:20;;;;;;;1.27;1.13;;;23.90;36.10;;;;;;5090156;28;20069;-64
2020/12/25 12:25:47;;;;;;;0.82;0.82;;;23.90;36.10;;;;;;5088359;28;20048;-64
2020/12/25 12:28:13;;;;;;;0.90;0.90;;;23.90;36.10;;;;;;5089477;28;20044;-64
2020/12/25 12:30:40;;;;;;;0.88;0.80;;;23.90;36.10;;;;;;5089773;28;20143;-64
2020/12/25 12:33:06;;;;;;;1.20;1.10;;;23.90;36.10;;;;;;5089106;28;20477;-63
2020/12/25 12:35:34;;;;;;;1.00;1.00;;;23.90;36.10;;;;;;5089621;28;20460;-64
2020/12/25 12:38:00;;;;;;;1.13;1.13;;;23.90;36.10;;;;;;5089553;28;20117;-67
2020/12/25 12:40:27;;;;;;;0.95;0.95;;;23.90;36.00;;;;;;5089545;28;20115;-64
2020/12/25 12:42:54;;;;;;;0.85;0.85;;;23.90;36.00;;;;;;5089543;28;20048;-64
2020/12/25 12:45:20;;;;;;;0.80;0.80;;;23.90;36.00;;;;;;5088546;28;20078;-63
2020/12/25 12:47:47;;;;;;;0.95;0.90;;;23.90;36.00;;;;;;5088067;28;20110;-64
2020/12/25 12:50:14;;;;;;;0.98;0.95;;;23.90;36.00;;;;;;5089131;28;20078;-63
2020/12/25 12:52:43;;;;;;;0.95;0.95;;;23.90;36.00;;;;;;5089276;28;20538;-63
2020/12/25 12:55:13;;;;;;;0.90;0.90;;;23.80;35.90;;;;;;5087401;28;20054;-63